createdAt,value
2018-12-23T00:01:50.721Z,64.17
2018-12-23T00:04:23.382Z,68.03
2018-12-23T00:06:49.154Z,67.03
2018-12-23T00:09:14.878Z,69.90
2018-12-23T00:11:40.714Z,41.57
2018-12-23T00:14:06.439Z,52.97
2018-12-23T00:16:32.144Z,60.37
2018-12-23T00:18:57.874Z,66.37
2018-12-23T00:21:23.689Z,51.87
2018-12-23T00:23:49.431Z,48.13
2018-12-23T00:26:15.166Z,52.73
2018-12-23T00:28:40.918Z,53.97
2018-12-23T00:31:06.686Z,47.80
2018-12-23T00:33:32.555Z,53.17
2018-12-23T00:35:58.334Z,47.00
2018-12-23T00:38:24.114Z,45.37
2018-12-23T00:40:49.938Z,48.13
2018-12-23T00:43:15.754Z,45.83
2018-12-23T00:45:41.578Z,50.53
2018-12-23T00:48:07.418Z,45.00
2018-12-23T00:50:33.130Z,40.70
2018-12-23T00:53:05.091Z,34.53
2018-12-23T00:55:30.810Z,40.20
2018-12-23T00:57:56.669Z,35.57
2018-12-23T01:00:22.420Z,36.17
2018-12-23T01:02:48.189Z,36.27
2018-12-23T01:05:14.019Z,37.97
2018-12-23T01:07:39.730Z,35.10
2018-12-23T01:10:12.586Z,34.83
2018-12-23T01:12:38.326Z,34.57
2018-12-23T01:15:04.758Z,32.10
2018-12-23T01:17:30.498Z,37.43
2018-12-23T01:19:56.279Z,37.57
2018-12-23T01:22:31.081Z,42.43
2018-12-23T01:24:56.938Z,39.47
2018-12-23T01:27:22.785Z,33.83
2018-12-23T01:29:48.646Z,41.23
2018-12-23T01:32:14.423Z,36.00
2018-12-23T01:34:40.163Z,33.07
2018-12-23T01:37:06.008Z,37.37
2018-12-23T01:39:31.758Z,34.43
2018-12-23T01:41:57.578Z,31.93
2018-12-23T01:44:23.290Z,35.10
2018-12-23T01:46:49.031Z,36.67
2018-12-23T01:49:15.244Z,34.30
2018-12-23T01:51:41.014Z,33.80
2018-12-23T01:54:06.763Z,37.00
2018-12-23T01:56:33.569Z,36.93
2018-12-23T01:58:59.448Z,40.63
2018-12-23T02:01:25.282Z,40.50
2018-12-23T02:03:51.118Z,40.23
2018-12-23T02:06:16.854Z,40.53
2018-12-23T02:08:42.566Z,48.73
2018-12-23T02:11:08.398Z,46.23
2018-12-23T02:13:34.118Z,46.43
2018-12-23T02:15:59.970Z,47.60
2018-12-23T02:18:25.822Z,46.97
2018-12-23T02:20:52.322Z,54.83
2018-12-23T02:23:19.797Z,64.10
2018-12-23T02:25:45.529Z,55.97
2018-12-23T02:28:11.283Z,54.30
2018-12-23T02:30:37.016Z,65.53
2018-12-23T02:33:03.775Z,56.47
2018-12-23T02:35:29.610Z,58.53
2018-12-23T02:37:55.347Z,61.27
2018-12-23T02:40:21.222Z,67.37
2018-12-23T02:42:46.963Z,54.47
2018-12-23T02:45:12.708Z,58.63
2018-12-23T02:47:38.532Z,66.27
2018-12-23T02:50:04.366Z,49.87
2018-12-23T02:52:30.102Z,64.10
2018-12-23T02:54:55.824Z,67.90
2018-12-23T02:57:21.536Z,60.57
2018-12-23T02:59:47.367Z,61.67
2018-12-23T03:02:13.096Z,53.77
2018-12-23T03:04:38.850Z,65.50
2018-12-23T03:07:04.575Z,48.03
2018-12-23T03:09:30.331Z,44.90
2018-12-23T03:11:56.061Z,49.00
2018-12-23T03:14:21.871Z,43.50
2018-12-23T03:16:47.703Z,48.90
2018-12-23T03:19:13.434Z,41.77
2018-12-23T03:21:39.163Z,45.40
2018-12-23T03:24:04.992Z,35.53
2018-12-23T03:26:30.729Z,41.67
2018-12-23T03:28:56.442Z,37.33
2018-12-23T03:31:22.171Z,50.43
2018-12-23T03:33:48.019Z,34.07
2018-12-23T03:36:15.330Z,27.93
2018-12-23T03:38:41.379Z,25.33
2018-12-23T03:41:07.222Z,25.40
2018-12-23T03:43:33.034Z,27.03
2018-12-23T03:45:58.758Z,19.83
2018-12-23T03:48:24.503Z,24.60
2018-12-23T03:50:50.224Z,23.63
2018-12-23T03:53:16.080Z,21.93
2018-12-23T03:55:41.907Z,31.13
2018-12-23T03:58:07.639Z,25.13
2018-12-23T04:00:33.379Z,25.90
2018-12-23T04:02:59.123Z,25.00
2018-12-23T04:05:24.858Z,22.77
2018-12-23T04:07:50.571Z,24.73
2018-12-23T04:10:16.333Z,21.43
2018-12-23T04:12:42.104Z,29.63
2018-12-23T04:15:07.959Z,25.33
2018-12-23T04:17:33.707Z,21.47
2018-12-23T04:19:59.530Z,20.23
2018-12-23T04:22:25.274Z,18.70
2018-12-23T04:24:51.007Z,21.93
2018-12-23T04:27:16.740Z,21.73
2018-12-23T04:29:42.603Z,18.23
2018-12-23T04:32:08.343Z,22.37
2018-12-23T04:34:34.187Z,23.50
2018-12-23T04:36:59.934Z,19.77
2018-12-23T04:39:25.680Z,22.23
2018-12-23T04:41:51.443Z,19.40
2018-12-23T04:44:17.192Z,23.47
2018-12-23T04:46:42.933Z,21.23
2018-12-23T04:49:08.667Z,22.00
2018-12-23T04:51:34.513Z,19.47
2018-12-23T04:54:00.251Z,23.27
2018-12-23T04:56:25.977Z,25.43
2018-12-23T04:58:51.807Z,22.23
2018-12-23T05:01:17.535Z,22.83
2018-12-23T05:03:43.303Z,22.00
2018-12-23T05:06:09.093Z,21.90
2018-12-23T05:08:34.818Z,16.07
2018-12-23T05:11:00.559Z,19.40
2018-12-23T05:13:26.370Z,16.13
2018-12-23T05:15:52.097Z,29.07
2018-12-23T05:18:18.052Z,19.67
2018-12-23T05:20:43.846Z,19.90
2018-12-23T05:23:09.573Z,19.00
2018-12-23T05:25:35.296Z,21.70
2018-12-23T05:28:01.023Z,21.37
2018-12-23T05:30:26.751Z,28.70
2018-12-23T05:32:52.490Z,17.27
2018-12-23T05:35:18.299Z,22.53
2018-12-23T05:37:44.026Z,24.10
2018-12-23T05:40:09.750Z,24.17
2018-12-23T05:42:35.476Z,23.17
2018-12-23T05:45:01.321Z,17.93
2018-12-23T05:47:27.151Z,24.57
2018-12-23T05:49:52.875Z,32.37
2018-12-23T05:52:18.605Z,30.33
2018-12-23T05:54:44.426Z,25.67
2018-12-23T05:57:10.165Z,27.47
2018-12-23T05:59:35.886Z,25.87
2018-12-23T06:02:01.710Z,31.70
2018-12-23T06:04:27.427Z,25.33
2018-12-23T06:07:00.749Z,27.63
2018-12-23T06:09:20.886Z,22.07
2018-12-23T06:11:46.627Z,22.63
2018-12-23T06:14:12.350Z,12.47
2018-12-23T06:16:38.078Z,14.47
2018-12-23T06:19:03.797Z,13.07
2018-12-23T06:21:29.774Z,16.93
2018-12-23T06:23:55.569Z,11.57
2018-12-23T06:26:21.282Z,13.87
2018-12-23T06:28:47.102Z,11.50
2018-12-23T06:31:12.823Z,15.37
2018-12-23T06:33:45.578Z,14.57
2018-12-23T06:36:11.307Z,14.83
2018-12-23T06:38:37.037Z,18.90
2018-12-23T06:41:02.867Z,12.60
2018-12-23T06:43:28.603Z,19.10
2018-12-23T06:45:54.318Z,14.37
2018-12-23T06:48:20.063Z,20.30
2018-12-23T06:50:52.670Z,20.47
2018-12-23T06:53:18.409Z,15.30
2018-12-23T06:55:44.119Z,21.87
2018-12-23T06:58:09.850Z,17.13
2018-12-23T07:00:35.566Z,14.70
2018-12-23T07:03:01.291Z,22.90
2018-12-23T07:05:27.110Z,21.70
2018-12-23T07:07:52.935Z,23.60
2018-12-23T07:10:18.662Z,16.57
2018-12-23T07:12:44.386Z,20.93
2018-12-23T07:15:10.111Z,26.30
2018-12-23T07:17:35.847Z,19.50
2018-12-23T07:20:01.775Z,20.33
2018-12-23T07:22:27.502Z,22.73
2018-12-23T07:24:53.223Z,25.17
2018-12-23T07:27:18.954Z,26.47
2018-12-23T07:29:44.670Z,31.77
2018-12-23T07:32:10.407Z,22.90
2018-12-23T07:34:36.120Z,19.13
2018-12-23T07:37:01.845Z,24.27
2018-12-23T07:39:27.563Z,30.70
2018-12-23T07:41:53.399Z,19.30
2018-12-23T07:44:19.118Z,22.07
2018-12-23T07:46:44.834Z,16.73
2018-12-23T07:49:10.571Z,22.93
2018-12-23T07:51:36.284Z,19.90
2018-12-23T07:54:02.011Z,18.97
2018-12-23T07:56:27.739Z,18.10
2018-12-23T07:58:53.484Z,20.17
2018-12-23T08:01:19.206Z,14.93
2018-12-23T08:03:44.925Z,18.33
2018-12-23T08:06:10.740Z,22.47
2018-12-23T08:08:36.460Z,17.47
2018-12-23T08:11:02.183Z,23.30
2018-12-23T08:13:28.011Z,16.10
2018-12-23T08:15:53.737Z,18.07
2018-12-23T08:18:19.474Z,14.93
2018-12-23T08:20:45.246Z,15.83
2018-12-23T08:23:10.979Z,18.67
2018-12-23T08:25:36.699Z,11.83
2018-12-23T08:28:02.542Z,22.30
2018-12-23T08:30:28.279Z,14.97
2018-12-23T08:32:54.001Z,11.53
2018-12-23T08:35:19.826Z,12.67
2018-12-23T08:37:45.552Z,14.27
2018-12-23T08:40:11.274Z,14.20
2018-12-23T08:42:36.994Z,19.30
2018-12-23T08:45:03.310Z,15.20
2018-12-23T08:47:29.028Z,14.30
2018-12-23T08:49:54.875Z,14.23
2018-12-23T08:52:20.599Z,7.77
2018-12-23T08:54:46.335Z,8.80
2018-12-23T08:57:12.151Z,7.37
2018-12-23T08:59:37.878Z,10.83
2018-12-23T09:02:04.407Z,17.40
2018-12-23T09:04:30.145Z,9.50
2018-12-23T09:06:55.859Z,11.30
2018-12-23T09:09:21.575Z,11.43
2018-12-23T09:11:47.300Z,16.47
2018-12-23T09:14:13.138Z,11.23
2018-12-23T09:16:38.848Z,12.90
2018-12-23T09:19:04.579Z,18.10
2018-12-23T09:21:30.319Z,13.20
2018-12-23T09:24:03.200Z,15.00
2018-12-23T09:26:28.918Z,11.87
2018-12-23T09:31:27.127Z,6.63
2018-12-23T09:33:52.850Z,12.30
2018-12-23T09:36:18.598Z,10.60
2018-12-23T09:38:44.340Z,7.60
2018-12-23T09:41:10.163Z,6.83
2018-12-23T09:43:35.894Z,4.43
2018-12-23T09:46:01.831Z,7.53
2018-12-23T09:48:27.567Z,7.17
2018-12-23T09:50:53.374Z,6.00
2018-12-23T09:53:19.082Z,6.90
2018-12-23T09:55:44.798Z,5.27
2018-12-23T09:58:10.499Z,5.57
2018-12-23T10:00:36.219Z,4.00
2018-12-23T10:03:02.050Z,4.77
2018-12-23T10:05:27.766Z,2.80
2018-12-23T10:07:53.486Z,6.57
2018-12-23T10:10:19.235Z,3.93
2018-12-23T10:12:44.952Z,4.73
2018-12-23T10:15:10.818Z,4.50
2018-12-23T10:17:36.555Z,5.83
2018-12-23T10:20:03.909Z,5.60
2018-12-23T10:22:29.627Z,7.80
2018-12-23T10:24:55.448Z,5.13
2018-12-23T10:27:21.162Z,5.63
2018-12-23T10:29:46.884Z,7.53
2018-12-23T10:32:12.603Z,5.90
2018-12-23T10:34:38.326Z,9.97
2018-12-23T10:37:04.156Z,6.50
2018-12-23T10:39:29.979Z,9.77
2018-12-23T10:41:55.752Z,13.03
2018-12-23T10:44:21.551Z,14.03
2018-12-23T10:46:47.268Z,13.83
2018-12-23T10:49:13.552Z,17.93
2018-12-23T10:51:39.276Z,18.53
2018-12-23T10:54:05.144Z,23.37
2018-12-23T10:56:31.255Z,21.13
2018-12-23T10:58:56.971Z,20.30
2018-12-23T11:01:22.794Z,24.53
2018-12-23T11:03:48.527Z,24.13
2018-12-23T11:06:14.471Z,22.43
2018-12-23T11:08:40.197Z,21.23
2018-12-23T11:11:06.025Z,23.03
2018-12-23T11:13:31.910Z,24.43
2018-12-23T11:15:57.687Z,20.23
2018-12-23T11:18:23.435Z,16.93
2018-12-23T11:20:49.166Z,15.47
2018-12-23T11:23:14.982Z,17.90
2018-12-23T11:25:40.818Z,19.87
2018-12-23T11:28:06.536Z,21.20
2018-12-23T11:30:32.362Z,14.37
2018-12-23T11:32:58.087Z,17.27
2018-12-23T11:35:23.830Z,15.90
2018-12-23T11:37:49.548Z,14.77
2018-12-23T11:40:15.370Z,14.97
2018-12-23T11:42:41.082Z,16.90
2018-12-23T11:45:06.813Z,15.57
2018-12-23T11:47:32.542Z,16.50
2018-12-23T11:49:58.278Z,12.83
2018-12-23T11:52:24.139Z,13.70
2018-12-23T11:54:49.858Z,15.70
2018-12-23T11:57:15.598Z,19.37
2018-12-23T11:59:41.336Z,18.53
2018-12-23T12:02:15.054Z,21.13
2018-12-23T12:04:34.801Z,18.23
2018-12-23T12:07:00.631Z,19.60
2018-12-23T12:09:26.341Z,20.83
2018-12-23T12:11:52.076Z,20.67
2018-12-23T12:14:17.800Z,17.90
2018-12-23T12:16:43.618Z,13.67
2018-12-23T12:19:09.335Z,16.47
2018-12-23T12:21:35.053Z,23.10
2018-12-23T12:24:00.776Z,20.57
2018-12-23T12:26:26.500Z,14.43
2018-12-23T12:28:52.236Z,16.70
2018-12-23T12:31:18.054Z,14.83
2018-12-23T12:33:43.766Z,11.03
2018-12-23T12:36:10.748Z,16.97
2018-12-23T12:38:37.480Z,14.30
2018-12-23T12:41:03.976Z,16.93
2018-12-23T12:43:30.747Z,20.10
2018-12-23T12:46:00.720Z,19.57
2018-12-23T12:48:26.746Z,18.57
2018-12-23T12:50:53.068Z,17.63
2018-12-23T12:53:19.469Z,19.50
2018-12-23T12:55:46.082Z,24.83
2018-12-23T12:58:12.566Z,25.17
2018-12-23T13:00:38.410Z,19.70
2018-12-23T13:03:06.929Z,23.57
2018-12-23T13:05:33.461Z,19.57
2018-12-23T13:08:00.305Z,26.50
2018-12-23T13:10:26.199Z,21.03
2018-12-23T13:12:52.912Z,22.43
2018-12-23T13:15:18.759Z,25.20
2018-12-23T13:17:45.507Z,26.40
2018-12-23T13:20:11.929Z,18.07
2018-12-23T13:22:37.688Z,23.57
2018-12-23T13:25:03.722Z,23.37
2018-12-23T13:27:29.440Z,26.53
2018-12-23T13:29:55.174Z,25.93
2018-12-23T13:32:20.910Z,20.73
2018-12-23T13:34:46.633Z,25.73
2018-12-23T13:37:12.356Z,21.63
2018-12-23T13:39:38.343Z,18.63
2018-12-23T13:42:08.101Z,15.17
2018-12-23T13:48:50.485Z,12.73
2018-12-23T13:51:56.129Z,13.60
2018-12-23T13:55:01.873Z,5.70
2018-12-23T13:58:27.395Z,5.80
2018-12-23T14:01:33.052Z,10.03
2018-12-23T14:04:40.614Z,9.90
2018-12-23T14:13:47.247Z,6.77
2018-12-23T14:16:13.134Z,7.20
2018-12-23T14:18:39.014Z,6.17
2018-12-23T14:21:04.896Z,6.43
2018-12-23T14:23:30.777Z,7.17
2018-12-23T14:25:56.661Z,10.10
2018-12-23T14:28:22.600Z,8.37
2018-12-23T14:33:27.603Z,8.50
2018-12-23T14:35:53.497Z,9.43
2018-12-23T14:38:19.467Z,10.00
2018-12-23T14:40:45.388Z,8.37
2018-12-23T14:43:11.281Z,13.67
2018-12-23T14:45:37.173Z,10.30
2018-12-23T14:48:03.471Z,13.23
2018-12-23T14:50:29.410Z,12.80
2018-12-23T14:52:55.300Z,11.80
2018-12-23T14:55:21.171Z,11.53
2018-12-23T14:57:47.064Z,13.83
2018-12-23T15:00:12.936Z,10.00
2018-12-23T15:02:38.828Z,8.80
2018-12-23T15:05:46.385Z,9.17
2018-12-23T15:08:12.268Z,14.73
2018-12-23T15:10:38.143Z,12.20
2018-12-23T15:13:04.037Z,8.87
2018-12-23T15:15:29.908Z,10.70
2018-12-23T15:17:55.808Z,7.30
2018-12-23T15:20:21.701Z,11.93
2018-12-23T15:22:47.592Z,8.43
2018-12-23T15:25:13.469Z,12.90
2018-12-23T15:27:59.264Z,10.87
2018-12-23T15:30:25.143Z,6.07
2018-12-23T15:32:51.035Z,9.10
2018-12-23T15:35:16.907Z,8.13
2018-12-23T15:37:42.806Z,7.53
2018-12-23T15:40:08.685Z,9.40
2018-12-23T15:42:34.573Z,11.77
2018-12-23T15:45:00.475Z,8.57
2018-12-23T15:47:26.333Z,6.83
2018-12-23T15:49:52.230Z,7.40
2018-12-23T15:52:18.114Z,6.10
2018-12-23T15:54:46.401Z,7.40
2018-12-23T15:57:11.786Z,6.90
2018-12-23T15:59:37.653Z,9.47
2018-12-23T16:02:03.531Z,6.57
2018-12-23T16:04:29.430Z,7.73
2018-12-23T16:06:55.306Z,6.63
2018-12-23T16:09:21.928Z,11.23
2018-12-23T16:11:47.861Z,12.87
2018-12-23T16:16:52.273Z,8.47
2018-12-23T16:19:18.232Z,29.10
2018-12-23T16:21:44.095Z,12.03
2018-12-23T16:24:10.000Z,10.33
2018-12-23T16:26:35.884Z,11.50
2018-12-23T16:29:01.774Z,8.70
2018-12-23T16:31:27.653Z,11.30
2018-12-23T16:33:53.545Z,13.17
2018-12-23T16:36:19.435Z,8.33
2018-12-23T16:38:45.345Z,9.17
2018-12-23T16:41:11.212Z,8.33
2018-12-23T16:43:37.110Z,5.47
2018-12-23T16:46:02.985Z,6.60
2018-12-23T16:48:28.898Z,6.23
2018-12-23T16:50:54.774Z,9.17
2018-12-23T16:53:20.669Z,5.27
2018-12-23T16:55:46.553Z,7.17
2018-12-23T16:58:12.427Z,6.23
2018-12-23T17:00:38.429Z,7.67
2018-12-23T17:03:04.309Z,5.00
2018-12-23T17:05:30.200Z,8.07
2018-12-23T17:07:56.175Z,7.43
2018-12-23T17:10:22.073Z,9.27
2018-12-23T17:12:47.959Z,9.27
2018-12-23T17:15:13.930Z,7.40
2018-12-23T17:17:39.819Z,8.60
2018-12-23T17:20:47.393Z,9.33
2018-12-23T17:23:13.264Z,7.37
2018-12-23T17:25:39.159Z,9.37
2018-12-23T17:28:05.031Z,7.57
2018-12-23T17:30:30.919Z,9.47
2018-12-23T17:32:56.791Z,11.03
2018-12-23T17:35:22.670Z,8.57
2018-12-23T17:37:48.576Z,10.83
2018-12-23T17:40:16.537Z,9.37
2018-12-23T17:42:42.326Z,9.43
2018-12-23T17:45:08.218Z,10.67
2018-12-23T17:47:34.093Z,8.30
2018-12-23T17:49:59.998Z,6.87
2018-12-23T17:52:25.874Z,10.53
2018-12-23T17:54:51.757Z,13.73
2018-12-23T17:57:17.642Z,8.27
2018-12-23T17:59:43.515Z,9.93
2018-12-23T18:02:09.415Z,8.30
2018-12-23T18:04:35.284Z,11.20
2018-12-23T18:09:34.677Z,10.97
2018-12-23T18:12:00.559Z,10.03
2018-12-23T18:14:26.430Z,9.60
2018-12-23T18:16:52.311Z,9.33
2018-12-23T18:19:18.193Z,10.27
2018-12-23T18:21:44.085Z,10.63
2018-12-23T18:24:09.953Z,11.97
2018-12-23T18:26:35.833Z,23.93
2018-12-23T18:29:21.603Z,14.37
2018-12-23T18:31:47.486Z,13.77
2018-12-23T18:34:13.368Z,14.80
2018-12-23T18:36:39.257Z,13.23
2018-12-23T18:39:05.222Z,20.57
2018-12-23T18:41:31.116Z,24.47
2018-12-23T18:43:56.983Z,14.47
2018-12-23T18:46:22.874Z,14.17
2018-12-23T18:48:48.769Z,11.90
2018-12-23T18:51:14.648Z,18.10
2018-12-23T18:53:40.527Z,15.83
2018-12-23T18:56:27.522Z,18.90
2018-12-23T18:58:53.397Z,21.47
2018-12-23T19:01:19.295Z,17.27
2018-12-23T19:03:45.272Z,15.77
2018-12-23T19:06:11.375Z,17.73
2018-12-23T19:12:44.078Z,18.03
2018-12-23T19:19:36.679Z,15.67
2018-12-23T19:22:42.336Z,16.33
2018-12-23T19:25:47.980Z,15.47
2018-12-23T19:32:08.971Z,26.53
2018-12-23T19:35:14.607Z,23.73
2018-12-23T19:38:22.170Z,28.07
2018-12-23T19:41:29.755Z,24.20
2018-12-23T19:44:37.314Z,18.07
2018-12-23T19:47:42.967Z,23.32
2018-12-23T19:50:48.653Z,25.87
2018-12-23T19:53:54.304Z,24.07
2018-12-23T19:56:59.945Z,18.70
2018-12-23T20:00:07.503Z,21.03
2018-12-23T20:03:13.137Z,24.37
2018-12-23T20:06:20.690Z,22.67
2018-12-23T20:09:28.238Z,18.83
2018-12-23T20:12:35.779Z,22.73
2018-12-23T20:15:43.331Z,23.27
2018-12-23T20:18:48.978Z,22.20
2018-12-23T20:21:56.525Z,23.40
2018-12-23T20:25:02.174Z,22.17
2018-12-23T20:28:09.730Z,27.33
2018-12-23T20:37:44.446Z,8.03
2018-12-23T20:40:50.109Z,7.83
2018-12-23T20:43:55.749Z,6.12
2018-12-23T20:47:01.422Z,6.45
2018-12-23T20:50:09.163Z,5.67
2018-12-23T20:53:14.813Z,6.95
2018-12-23T20:56:20.474Z,8.50
2018-12-23T21:02:53.201Z,7.67
2018-12-23T21:06:18.742Z,10.58
2018-12-23T21:09:26.284Z,8.95
2018-12-23T21:12:31.942Z,11.22
2018-12-23T21:15:37.592Z,13.62
2018-12-23T21:18:45.146Z,11.15
2018-12-23T21:21:50.802Z,11.33
2018-12-23T21:25:16.329Z,10.32
2018-12-23T21:28:23.888Z,9.60
2018-12-23T21:34:42.702Z,11.95
2018-12-23T21:37:50.693Z,9.95
2018-12-23T21:40:56.403Z,9.85
2018-12-23T21:47:16.000Z,9.35
2018-12-23T21:50:21.653Z,10.65
2018-12-23T21:56:42.471Z,11.78
2018-12-23T21:59:50.030Z,9.40
2018-12-23T22:02:55.696Z,8.68
2018-12-23T22:06:23.796Z,9.43
2018-12-23T22:13:02.911Z,10.95
2018-12-23T22:15:28.804Z,15.35
2018-12-23T22:17:55.857Z,10.63
2018-12-23T22:20:22.470Z,9.73
2018-12-23T22:22:48.338Z,10.23
2018-12-23T22:25:14.233Z,11.30
2018-12-23T22:27:40.114Z,12.60
2018-12-23T22:30:06.010Z,13.30
2018-12-23T22:32:31.888Z,11.37
2018-12-23T22:34:57.769Z,10.83
2018-12-23T22:37:23.637Z,13.53
2018-12-23T22:39:49.526Z,11.30
2018-12-23T22:42:15.397Z,13.80
2018-12-23T22:44:41.288Z,17.70
2018-12-23T22:47:07.152Z,16.87
2018-12-23T22:49:33.053Z,13.73
2018-12-23T22:51:58.919Z,15.50
2018-12-23T22:54:24.818Z,10.97
2018-12-23T22:56:50.698Z,11.90
2018-12-23T22:59:16.580Z,11.60
2018-12-23T23:01:42.547Z,11.80
2018-12-23T23:04:08.424Z,9.33
2018-12-23T23:06:34.422Z,10.70
2018-12-23T23:09:00.294Z,11.63
2018-12-23T23:11:27.447Z,12.67
2018-12-23T23:13:53.956Z,9.30
2018-12-23T23:16:19.847Z,10.47
2018-12-23T23:18:46.043Z,10.27
2018-12-23T23:21:11.931Z,9.88
2018-12-23T23:23:37.796Z,9.80
2018-12-23T23:26:03.698Z,10.57
2018-12-23T23:28:29.564Z,11.83
2018-12-23T23:30:55.468Z,16.93
2018-12-23T23:33:21.338Z,12.53
2018-12-23T23:35:47.237Z,11.77
2018-12-23T23:38:13.107Z,10.40
2018-12-23T23:40:38.998Z,13.07
2018-12-23T23:43:04.871Z,12.60
2018-12-23T23:45:50.646Z,12.07
2018-12-23T23:48:16.527Z,14.23
2018-12-23T23:50:42.414Z,17.13
2018-12-23T23:53:08.284Z,13.10
2018-12-23T23:55:34.155Z,14.63
2018-12-23T23:58:00.046Z,12.53
